Latest Weather Observations for Alice Springs Airport

IDD60801

Issued at 10:31 pm CST Thursday 3 September 2015 (issued every 30 minutes, with the page automatically refreshed every 10 minutes)

About weather observations | Map of weather stations | Latest weather observations for NT | Other Formats
Station Details ID: 015590 Name: ALICE SPRINGS AIRPORT Lat: -23.80 Lon: 133.89 Height: 546.0 m
Data from the previous 72 hours. | See also: Recent months at Alice Springs Airport
Date/Time
CST
Temp
°C
App
Temp
°C
Dew
Point
Rel
Hum
%
Delta-T
°C
Wind Press
QNH
hPa
Press
MSL
hPa
Rain
since 9 am
mm
Dir
 
Spd
km/h
Gust
km/h
Spd
kts
Gust
kts
03/10:30pm 10.0 7.6 -0.5 48 4.3 NE 2 7 1 4 1024.5 1022.7 0.0
03/10:00pm 11.5 7.8 -0.2 44 4.9 ESE 9 9 5 5 1024.4 1022.6 0.0
03/09:30pm 11.9 7.6 -1.6 39 5.5 SE 11 13 6 7 1024.2 1022.4 0.0
03/09:00pm 12.5 8.1 -2.4 35 6.0 SE 11 13 6 7 1024.1 1022.3 0.0
03/08:30pm 13.1 8.6 -2.9 33 6.4 SE 11 13 6 7 1023.9 1022.1 0.0
03/08:00pm 14.1 9.3 -2.6 31 6.8 SSE 13 15 7 8 1023.5 1021.8 0.0
03/07:30pm 14.4 9.4 -4.1 27 7.3 SSE 13 15 7 8 1023.1 1021.3 0.0
03/07:00pm 15.6 10.6 -4.6 24 8.0 SSE 13 15 7 8 1022.5 1020.7 0.0
03/06:30pm 17.3 12.7 -4.5 22 8.8 SSE 11 13 6 7 1022.1 1020.3 0.0
03/06:00pm 19.5 14.8 -5.0 18 10.0 SSE 11 15 6 8 1022.1 1020.3 0.0
03/05:30pm 20.2 15.4 -5.7 17 10.5 E 11 15 6 8 1022.0 1020.2 0.0
03/05:00pm 20.4 15.6 -6.2 16 10.7 ESE 11 20 6 11 1021.8 1019.9 0.0
03/04:30pm 20.9 16.0 -7.5 14 11.2 E 11 19 6 10 1021.8 1019.9 0.0
03/04:00pm 20.7 16.1 -3.9 19 10.4 SSE 11 19 6 10 1021.9 1020.0 0.0
03/03:30pm 20.0 14.8 -6.2 16 10.5 ESE 13 20 7 11 1022.0 1020.2 0.0
03/03:00pm 19.3 15.8 5.3 39 7.0 ESE 13 22 7 12 1022.0 1020.2 0.0
03/02:30pm 19.7 13.3 -6.5 16 10.4 ESE 19 26 10 14 1022.3 1020.5 0.0
03/02:00pm 19.3 13.5 -5.0 19 9.9 ESE 17 26 9 14 1022.8 1021.0 0.0
03/01:30pm 19.8 13.9 -5.2 18 10.2 SSE 17 22 9 12 1023.1 1021.3 0.0
03/01:00pm 19.2 14.1 -4.8 19 9.8 ESE 13 26 7 14 1023.4 1021.6 0.0
03/12:30pm 18.2 11.9 -5.7 19 9.5 ESE 19 30 10 16 1023.9 1022.1 0.0
03/12:00pm 17.4 12.0 -4.8 21 8.9 SE 15 32 8 17 1024.7 1022.9 0.0
03/11:30am 16.7 10.7 -2.8 26 8.1 ESE 19 28 10 15 1025.1 1023.4 0.0
03/11:00am 16.3 10.9 -1.2 30 7.5 SE 17 28 9 15 1025.7 1023.9 0.0
03/10:30am 14.7 9.5 -0.1 36 6.4 SE 17 28 9 15 1026.1 1024.3 0.0
03/10:00am 14.5 8.8 -0.8 35 6.5 SSE 19 28 10 15 1026.1 1024.3 0.0
03/09:30am 13.7 8.0 -0.4 38 6.0 SE 19 28 10 15 1026.0 1024.2 0.0
03/09:00am 12.8 8.1 -1.6 37 5.9 SSE 13 19 7 10 1025.8 1024.0 0.0
03/08:30am 11.3 8.2 -3.0 36 5.6 SW 4 7 2 4 1025.4 1023.7 0.0
03/08:00am 9.9 6.1 -3.5 39 5.1 WNW 7 7 4 4 1025.0 1023.2 0.0
03/07:30am 6.8 2.4 -5.5 41 4.3 NW 9 9 5 5 1024.7 1022.9 0.0
03/07:00am 4.7 0.3 -6.0 46 3.6 W 9 11 5 6 1024.2 1022.4 0.0
03/06:30am 5.2 0.4 -6.1 44 3.8 WSW 11 11 6 6 1023.9 1022.1 0.0
03/06:00am 5.4 0.2 -6.1 43 3.9 WNW 13 13 7 7 1023.6 1021.9 0.0
03/05:30am 5.5 0.2 -7.7 38 4.3 W 13 13 7 7 1023.2 1021.4 0.0
03/05:00am 5.2 0.6 -8.3 37 4.3 W 9 11 5 6 1022.8 1021.0 0.0
03/04:30am 6.1 1.5 -7.6 37 4.5 WNW 9 9 5 5 1022.7 1020.9 0.0
03/04:00am 5.0 0.0 -8.2 38 4.2 WNW 11 11 6 6 1022.7 1020.9 0.0
03/03:30am 5.9 1.6 -8.4 35 4.6 W 7 9 4 5 1022.6 1020.8 0.0
03/03:00am 7.1 2.5 -8.1 33 5.0 WNW 9 11 5 6 1022.6 1020.8 0.0
03/02:30am 7.2 2.6 -8.4 32 5.1 WNW 9 9 5 5 1022.5 1020.7 0.0
03/02:00am 8.8 4.4 -10.3 25 6.1 WNW 7 9 4 5 1022.5 1020.7 0.0
03/01:30am 8.5 4.1 -10.4 25 6.0 NW 7 9 4 5 1022.6 1020.8 0.0
03/01:00am 8.9 4.1 -10.0 25 6.1 NNW 9 9 5 5 1022.5 1020.7 0.0
03/12:30am 8.2 3.8 -10.5 25 5.9 WSW 7 9 4 5 1022.5 1020.7 0.0
03/12:00am 8.7 4.0 -14.5 18 6.7 WSW 7 9 4 5 1022.4 1020.6 0.0
 
Date/Time
CST
Temp
°C
App
Temp
°C
Dew
Point
Rel
Hum
%
Delta-T
°C
Wind Press
QNH
hPa
Press
MSL
hPa
Rain
since 9 am
mm
Dir
 
Spd
km/h
Gust
km/h
Spd
kts
Gust
kts
02/11:30pm 9.1 4.2 -11.3 22 6.4 WSW 9 9 5 5 1022.3 1020.5 0.0
02/11:00pm 8.3 3.4 -11.4 23 6.1 NW 9 11 5 6 1022.2 1020.4 0.0
02/10:30pm 10.6 6.0 -12.5 18 7.2 NW 7 9 4 5 1022.2 1020.4 0.0
02/10:00pm 11.5 6.5 -14.1 15 7.8 WSW 9 11 5 6 1022.0 1020.2 0.0
02/09:30pm 11.6 6.5 -14.6 14 7.9 WSW 9 11 5 6 1021.9 1020.0 0.0
02/09:00pm 12.9 7.9 -14.1 14 8.4 WSW 9 11 5 6 1021.5 1019.7 0.0
02/08:30pm 14.1 8.9 -17.5 10 9.3 SSW 9 9 5 5 1021.1 1019.3 0.0
02/08:00pm 12.8 7.0 -14.4 13 8.4 SSW 13 15 7 8 1020.7 1018.9 0.0
02/07:30pm 14.3 7.9 -18.6 9 9.5 SSW 15 17 8 9 1020.3 1018.5 0.0
02/07:00pm 15.7 9.3 -19.5 7 10.2 SSW 15 19 8 10 1019.9 1018.0 0.0
02/06:30pm 18.3 11.0 -22.5 5 11.6 SSW 19 24 10 13 1019.5 1017.7 0.0
02/06:00pm 20.2 13.4 -20.9 5 12.4 SSW 17 26 9 14 1019.1 1017.3 0.0
02/05:30pm 21.3 14.2 -17.8 6 12.7 SW 19 32 10 17 1018.7 1016.9 0.0
02/05:00pm 21.8 14.3 -14.2 8 12.6 SW 22 32 12 17 1018.4 1016.5 0.0
02/04:30pm 22.0 14.7 -17.2 6 13.0 WSW 20 26 11 14 1018.3 1016.4 0.0
02/04:00pm 22.9 15.7 -16.6 6 13.4 WSW 20 33 11 18 1018.2 1016.3 0.0
02/03:30pm 22.8 14.6 -13.2 8 13.0 WSW 26 37 14 20 1018.1 1016.2 0.0
02/03:00pm 22.7 15.1 -15.6 6 13.2 SW 22 37 12 20 1018.0 1016.1 0.0
02/02:30pm 22.1 14.3 -12.0 9 12.5 SW 24 33 13 18 1018.1 1016.2 0.0
02/02:00pm 22.0 14.6 -11.7 9 12.4 SW 22 37 12 20 1018.2 1016.3 0.0
02/01:30pm 21.2 13.6 -9.6 12 11.7 SW 24 35 13 19 1018.4 1016.5 0.0
02/01:00pm 21.8 15.0 -8.9 12 11.9 SW 20 32 11 17 1018.7 1016.9 0.0
02/12:30pm 20.3 14.1 -4.9 18 10.4 SW 19 32 10 17 1019.1 1017.3 0.0
02/12:00pm 20.4 14.1 -5.6 17 10.6 SW 19 28 10 15 1019.6 1017.8 0.0
02/11:30am 18.5 12.3 -4.9 20 9.5 SW 19 32 10 17 1020.1 1018.2 0.0
02/11:00am 18.3 12.0 -5.4 19 9.5 SW 19 28 10 15 1020.5 1018.7 0.0
02/10:30am 17.5 11.7 -4.9 21 9.0 SW 17 28 9 15 1020.6 1018.8 0.0
02/10:00am 16.8 10.4 -4.7 22 8.6 SW 20 30 11 16 1020.6 1018.8 0.0
02/09:30am 15.8 9.4 -4.6 24 8.1 SW 20 28 11 15 1020.5 1018.7 0.0
02/09:00am 15.9 9.1 -4.8 23 8.2 S 22 30 12 16 1020.4 1018.6 0.0
02/08:30am 14.6 7.9 -4.5 26 7.5 SSW 22 35 12 19 1020.2 1018.3 0.0
02/08:00am 14.0 8.3 -0.9 36 6.3 SSW 19 26 10 14 1019.9 1018.0 0.0
02/07:30am 13.4 8.0 1.4 44 5.3 S 19 28 10 15 1019.3 1017.5 0.0
02/07:00am 13.1 7.2 1.6 45 5.1 SSW 22 30 12 16 1018.6 1016.7 0.0
02/06:30am 14.3 8.1 0.0 37 6.2 SSW 22 32 12 17 1018.1 1016.2 0.0
02/06:00am 14.5 8.5 -1.8 32 6.8 SSW 20 30 11 16 1017.0 1015.1 0.0
02/05:30am 14.6 10.5 -0.5 35 6.5 WNW 11 13 6 7 1016.2 1014.3 0.0
02/05:00am 15.1 10.5 -0.7 34 6.8 WNW 13 15 7 8 1015.4 1013.6 0.0
02/04:30am 14.8 10.3 -0.2 36 6.5 WNW 13 15 7 8 1014.7 1012.8 0.0
02/04:00am 15.1 10.3 0.0 35 6.6 WNW 15 17 8 9 1014.5 1012.6 0.0
02/03:30am 16.4 11.6 0.1 33 7.2 W 15 17 8 9 1014.5 1012.6 0.0
02/03:00am 17.8 12.9 -0.2 29 8.0 W 15 19 8 10 1014.2 1012.3 0.0
02/02:30am 19.0 13.7 -0.4 27 8.7 W 17 20 9 11 1013.7 1011.8 0.0
02/02:00am 20.0 14.6 -1.1 24 9.4 W 17 19 9 10 1013.6 1011.7 0.0
02/01:30am 18.5 13.4 0.8 30 8.1 WNW 17 17 9 9 1013.3 1011.4 0.0
02/01:00am 18.2 13.7 1.9 33 7.6 W 15 17 8 9 1013.3 1011.4 0.0
02/12:30am 19.6 16.3 2.4 32 8.2 W 9 11 5 6 1013.2 1011.3 0.0
02/12:00am 19.7 16.3 3.8 35 7.8 W 11 11 6 6 1013.1 1011.2 0.0
 
Date/Time
CST
Temp
°C
App
Temp
°C
Dew
Point
Rel
Hum
%
Delta-T
°C
Wind Press
QNH
hPa
Press
MSL
hPa
Rain
since 9 am
mm
Dir
 
Spd
km/h
Gust
km/h
Spd
kts
Gust
kts
01/11:30pm 20.7 17.4 2.4 29 8.8 W 9 11 5 6 1012.9 1011.0 0.0
01/11:00pm 21.5 17.5 3.1 29 9.0 WNW 13 19 7 10 1012.8 1010.9 0.0
01/10:30pm 22.1 18.2 3.5 29 9.2 NNW 13 17 7 9 1012.5 1010.6 0.0
01/10:00pm 22.2 17.9 3.4 29 9.3 NW 15 15 8 8 1012.4 1010.5 0.0
01/09:30pm 23.1 18.6 4.0 28 9.6 NNW 17 17 9 9 1012.3 1010.4 0.0
01/09:00pm 24.2 19.9 3.5 26 10.4 NW 15 17 8 9 1011.8 1009.9 0.0
01/08:30pm 25.1 20.9 3.6 25 10.9 WNW 15 19 8 10 1011.6 1009.7 0.0
01/08:00pm 26.0 21.7 3.0 22 11.6 NW 15 22 8 12 1011.2 1009.3 0.0
01/07:30pm 26.7 21.5 2.3 20 12.2 NW 19 22 10 12 1010.8 1008.9 0.0
01/07:00pm 26.9 21.5 1.3 19 12.6 NW 19 30 10 16 1010.5 1008.5 0.0
01/06:30pm 27.2 19.6 0.8 18 12.9 NW 30 39 16 21 1010.1 1008.1 0.0
01/06:00pm 28.0 20.2 -0.6 15 13.7 NW 30 41 16 22 1009.8 1007.9 0.0
01/05:50pm 28.1 20.7 -0.7 15 13.8 NW 28 46 15 25 1009.6 1007.7 0.0
01/05:30pm 28.8 20.6 -0.7 14 14.2 NW 32 43 17 23 1009.5 1007.6 0.0
01/05:00pm 28.3 19.6 -0.2 15 13.8 NNW 35 48 19 26 1009.3 1007.4 0.0
01/04:30pm 28.8 20.6 -1.1 14 14.3 NW 32 44 17 24 1009.3 1007.4 0.0
01/04:04pm 29.1 20.4 -0.4 14 14.3 NW 35 54 19 29 1009.3 1007.4 0.0
01/04:00pm 30.0 21.3 -0.3 14 14.8 NW 35 54 19 29 1009.3 1007.4 0.0
01/03:53pm 29.5 20.8 -0.2 14 14.5 NW 35 52 19 28 1009.5 1007.6 0.0
01/03:51pm 29.9 21.2 -0.5 14 14.8 NNW 35 54 19 29 1009.5 1007.6 0.0
01/03:30pm 29.6 20.4 -1.7 13 14.9 NW 37 54 20 29 1009.5 1007.6 0.0
01/03:08pm 28.6 19.4 -1.7 14 14.3 NW 37 57 20 31 1009.8 1007.9 0.0
01/03:00pm 28.6 19.9 -3.1 12 14.6 NNW 33 50 18 27 1010.1 1008.1 0.0
01/02:55pm 28.6 19.4 -4.6 11 14.9 NNW 35 50 19 27 1010.2 1008.2 0.0
01/02:30pm 28.7 19.6 -0.5 15 14.1 WNW 37 50 20 27 1010.3 1008.3 0.0
01/02:03pm 28.9 19.9 2.3 18 13.5 WNW 39 57 21 31 1010.6 1008.6 0.0
01/02:00pm 29.0 20.3 1.7 17 13.7 WNW 37 52 20 28 1010.7 1008.8 0.0
01/01:30pm 28.5 19.8 1.7 17 13.4 WNW 37 48 20 26 1011.2 1009.3 0.0
01/01:11pm 27.9 19.3 0.4 16 13.4 WNW 35 54 19 29 1011.5 1009.6 0.0
01/01:00pm 29.0 20.2 -1.1 14 14.4 NNW 35 46 19 25 1011.6 1009.7 0.0
01/12:44pm 28.3 19.2 -0.7 15 13.9 NW 37 56 20 30 1012.1 1010.1 0.0
01/12:30pm 28.4 19.2 -1.3 14 14.1 NW 37 52 20 28 1012.2 1010.2 0.0
01/12:01pm 28.5 18.5 -2.0 13 14.3 NW 41 59 22 32 1012.9 1011.0 0.0
01/12:00pm 28.5 18.9 -1.6 14 14.2 NW 39 54 21 29 1012.9 1011.0 0.0
01/11:45am 28.5 20.0 -3.5 12 14.6 NW 32 52 17 28 1013.2 1011.3 0.0
01/11:30am 26.7 17.5 -1.7 15 13.2 NW 37 50 20 27 1013.4 1011.5 0.0
01/11:19am 27.8 18.9 -1.6 14 13.8 NW 35 54 19 29 1013.6 1011.7 0.0
01/11:00am 27.1 17.6 -3.9 13 13.9 NNW 37 50 20 27 1014.0 1012.1 0.0
01/10:30am 26.0 17.0 -6.1 11 13.7 NNW 33 43 18 23 1014.2 1012.3 0.0
01/10:00am 24.5 15.2 -5.7 13 12.8 N 35 48 19 26 1014.3 1012.4 0.0
01/09:30am 24.6 15.3 -5.4 13 12.8 N 35 46 19 25 1014.4 1012.5 0.0
01/09:00am 23.3 14.7 -4.4 15 11.9 NNW 32 39 17 21 1014.5 1013.6 0.0
01/08:30am 21.2 13.2 -5.9 15 11.1 N 28 35 15 19 1014.5 1013.6 0.0
01/08:00am 20.5 12.1 -5.7 16 10.7 N 30 41 16 22 1014.2 1013.3 0.0
01/07:30am 20.7 13.5 -5.2 17 10.7 N 24 33 13 18 1014.0 1013.1 0.0
01/07:00am 19.9 15.7 -4.3 19 10.1 NNE 9 13 5 7 1013.6 1012.8 0.0
01/06:30am 19.8 15.9 -5.0 18 10.2 NNE 7 11 4 6 1013.6 1012.8 0.0
01/06:00am 20.4 16.0 -5.9 16 10.7 NE 9 19 5 10 1013.2 1012.3 0.0
01/05:30am 19.7 14.2 -5.7 17 10.3 N 15 22 8 12 1013.2 1012.3 0.0
01/05:00am 20.3 12.5 -7.3 15 10.9 N 26 35 14 19 1013.1 1012.2 0.0
01/04:30am 19.9 12.9 -7.3 15 10.7 N 22 30 12 16 1013.4 1012.5 0.0
01/04:00am 20.3 14.3 -6.8 15 10.8 N 17 24 9 13 1013.5 1012.7 0.0
01/03:30am 20.3 14.7 -6.2 16 10.7 NNE 15 26 8 14 1013.8 1013.0 0.0
01/03:00am 19.6 12.7 -6.0 17 10.3 N 22 30 12 16 1014.1 1013.2 0.0
01/02:30am 19.5 14.8 -4.8 19 10.0 ENE 11 11 6 6 1014.3 1013.4 0.0
01/02:00am 18.5 13.7 -2.2 24 8.9 NE 13 19 7 10 1014.8 1013.9 0.0
01/01:30am 19.6 14.3 -3.6 20 9.8 NNE 15 20 8 11 1015.3 1014.5 0.0
01/01:00am 19.2 14.3 -3.2 21 9.5 NNW 13 20 7 11 1015.5 1014.7 0.0
01/12:30am 20.3 16.2 -2.9 21 10.0 N 9 15 5 8 1015.7 1014.9 0.0
01/12:00am 19.4 15.0 -2.4 23 9.4 NE 11 13 6 7 1016.0 1015.1 0.0
 
Date/Time
CST
Temp
°C
App
Temp
°C
Dew
Point
Rel
Hum
%
Delta-T
°C
Wind Press
QNH
hPa
Press
MSL
hPa
Rain
since 9 am
mm
Dir
 
Spd
km/h
Gust
km/h
Spd
kts
Gust
kts
31/11:30pm 17.8 14.0 -0.5 29 8.1 ENE 9 13 5 7 1016.4 1015.5 0.0
31/11:00pm 19.7 16.3 -0.6 25 9.1 NE 7 9 4 5 1016.8 1016.0 0.0

Other Formats:

Comma delimited format used in spreadsheet applications
http://www.bom.gov.au/fwo/IDD60801/IDD60801.94326.axf

JavaScript Object Notation format (JSON) in row-major order
http://www.bom.gov.au/fwo/IDD60801/IDD60801.94326.json